Time;durP1;ratioP1;P1;durP2;ratioP2;P2;SDS_P1;SDS_P2;PMS_P1;PMS_P2;Temp;Humidity;BMP_temperature;BMP_pressure;BME280_temperature;BME280_humidity;BME280_pressure;Samples;Min_cycle;Max_cycle;Signal;HPM_P1;HPM_P2
2022/06/13 00:00:55;;;;;;;;;;;;;;;26.82;45.71;98918.69;2086083;28;19940;-52
2022/06/13 00:01:57;;;;;;;;;;;;;;;26.83;45.92;98925.78;2086979;28;19925;-53
2022/06/13 00:02:58;;;;;;;;;;;;;;;26.84;46.47;98922.00;2084571;28;19925;-47
2022/06/13 00:04:01;;;;;;;;;;;;;;;26.84;46.40;98926.63;2079012;28;19932;-48
2022/06/13 00:05:02;;;;;;;;;;;;;;;26.83;46.71;98923.06;2079135;28;19929;-48
2022/06/13 00:06:03;;;;;;;;;;;;;;;26.84;46.55;98916.53;2080520;28;19955;-49
2022/06/13 00:07:04;;;;;;;;;;;;;;;26.81;46.63;98910.78;2080616;28;19933;-46
2022/06/13 00:08:06;;;;;;;;;;;;;;;26.83;46.03;98909.47;2082919;28;19974;-48
2022/06/13 00:09:08;;;;;;;;;;;;;;;26.82;46.08;98913.25;2079960;28;19935;-47
2022/06/13 00:10:09;;;;;;;;;;;;;;;26.82;46.08;98909.72;2081453;28;19939;-48
2022/06/13 00:11:13;;;;;;;;;;;;;;;26.80;46.10;98901.81;2080394;28;20301;-48
2022/06/13 00:12:13;;;;;;;;;;;;;;;26.82;46.16;98905.09;2083358;28;20663;-49
2022/06/13 00:13:15;;;;;;;;;;;;;;;26.81;46.25;98908.88;2079173;28;19939;-50
2022/06/13 00:14:18;;;;;;;;;;;;;;;26.81;46.13;98910.78;2082627;28;20366;-48
2022/06/13 00:15:19;;;;;;;;;;;;;;;26.82;46.20;98906.97;2080927;28;19929;-50
2022/06/13 00:16:21;;;;;;;;;;;;;;;26.81;46.27;98902.63;2075597;28;20006;-48
2022/06/13 00:17:21;;;;;;;;;;;;;;;26.81;46.55;98905.34;2076496;28;20432;-48
2022/06/13 00:18:24;;;;;;;;;;;;;;;26.80;47.01;98903.69;2080753;28;19964;-49
2022/06/13 00:19:25;;;;;;;;;;;;;;;26.81;46.68;98903.44;2079518;28;20416;-49
2022/06/13 00:20:26;;;;;;;;;;;;;;;26.79;47.04;98900.16;2078030;28;19932;-53
2022/06/13 00:21:29;;;;;;;;;;;;;;;26.81;46.79;98905.34;2081337;28;19986;-54
2022/06/13 00:22:30;;;;;;;;;;;;;;;26.79;46.88;98900.16;2086474;28;20507;-52
2022/06/13 00:23:31;;;;;;;;;;;;;;;26.82;46.49;98898.81;2085459;28;19939;-53
2022/06/13 00:24:33;;;;;;;;;;;;;;;26.80;46.33;98899.09;2086947;28;19925;-50
2022/06/13 00:25:33;;;;;;;;;;;;;;;26.79;46.91;98897.41;2087153;28;20197;-48
2022/06/13 00:26:36;;;;;;;;;;;;;;;26.81;46.67;98895.28;2086852;28;20007;-49
2022/06/13 00:27:37;;;;;;;;;;;;;;;26.81;46.45;98894.47;2085088;28;20011;-50
2022/06/13 00:28:38;;;;;;;;;;;;;;;26.81;46.71;98902.63;2087631;28;19960;-49
2022/06/13 00:29:41;;;;;;;;;;;;;;;26.81;46.75;98892.56;2089135;28;19928;-49
2022/06/13 00:30:43;;;;;;;;;;;;;;;26.80;46.64;98904.53;2089130;28;20088;-48
2022/06/13 00:31:44;;;;;;;;;;;;;;;26.80;47.04;98896.38;2088525;28;19933;-51
2022/06/13 00:32:45;;;;;;;;;;;;;;;26.81;47.20;98898.00;2087140;28;20027;-49
2022/06/13 00:33:46;;;;;;;;;;;;;;;26.82;47.17;98896.09;2086409;28;19925;-52
2022/06/13 00:34:48;;;;;;;;;;;;;;;26.82;46.87;98896.09;2087871;28;19933;-51
2022/06/13 00:35:49;;;;;;;;;;;;;;;26.80;47.23;98899.09;2090704;28;19928;-48
2022/06/13 00:36:50;;;;;;;;;;;;;;;26.81;47.23;98894.47;2086072;28;20013;-51
2022/06/13 00:37:51;;;;;;;;;;;;;;;26.79;47.22;98891.97;2088170;28;20562;-51
2022/06/13 00:38:52;;;;;;;;;;;;;;;26.79;47.03;98897.41;2085629;28;19932;-49
2022/06/13 00:39:53;;;;;;;;;;;;;;;26.80;47.37;98895.53;2086949;28;19925;-52
2022/06/13 00:40:55;;;;;;;;;;;;;;;26.79;47.33;98891.97;2086942;28;20944;-50
2022/06/13 00:41:55;;;;;;;;;;;;;;;26.79;47.43;98891.97;2088849;28;20488;-50
2022/06/13 00:42:57;;;;;;;;;;;;;;;26.79;47.55;98897.41;2086981;28;19938;-49
2022/06/13 00:43:58;;;;;;;;;;;;;;;26.77;47.38;98893.31;2086734;28;19940;-52
2022/06/13 00:45:10;;;;;;;;;;;;;;;26.78;47.47;98895.78;2087694;28;20349;-48
2022/06/13 00:46:16;;;;;;;;;;;;;;;26.77;47.66;98899.56;2088234;28;19925;-51
2022/06/13 00:47:16;;;;;;;;;;;;;;;26.77;47.39;98893.31;2087707;28;19929;-51
2022/06/13 00:48:22;;;;;;;;;;;;;;;26.79;47.50;98896.59;2086711;28;19925;-47
2022/06/13 00:49:25;;;;;;;;;;;;;;;26.77;47.52;98888.69;2086558;28;20337;-51
2022/06/13 00:50:28;;;;;;;;;;;;;;;26.77;47.14;98879.69;2086121;28;20480;-52
2022/06/13 00:51:29;;;;;;;;;;;;;;;26.76;47.19;98878.06;2087543;28;19933;-51
2022/06/13 00:52:35;;;;;;;;;;;;;;;26.77;47.11;98883.22;2088909;28;19924;-51
2022/06/13 00:53:36;;;;;;;;;;;;;;;26.76;47.18;98878.06;2087616;28;20464;-48
2022/06/13 00:54:38;;;;;;;;;;;;;;;26.78;47.37;98878.63;2090184;28;19978;-48
2022/06/13 00:55:43;;;;;;;;;;;;;;;26.77;47.44;98880.50;2090469;28;19925;-50
2022/06/13 00:56:47;;;;;;;;;;;;;;;26.77;46.95;98883.22;2089137;28;19939;-50
2022/06/13 00:57:48;;;;;;;;;;;;;;;26.78;47.16;98875.91;2090875;28;19925;-49
2022/06/13 00:58:53;;;;;;;;;;;;;;;26.77;46.72;98880.50;2092094;28;19929;-48
2022/06/13 00:59:56;;;;;;;;;;;;;;;26.79;47.18;98880.28;2091497;28;19936;-50
2022/06/13 01:01:00;;;;;;;;;;;;;;;26.76;46.93;98881.59;2091032;28;19925;-49
2022/06/13 01:02:01;;;;;;;;;;;;;;;26.76;46.72;98878.88;2092235;28;20537;-48
2022/06/13 01:03:04;;;;;;;;;;;;;;;26.77;46.66;98876.97;2091280;28;19978;-50
2022/06/13 01:04:05;;;;;;;;;;;;;;;26.76;46.58;98876.16;2090739;28;19939;-49
2022/06/13 01:05:07;;;;;;;;;;;;;;;26.76;46.80;98873.44;2089305;28;20546;-50
2022/06/13 01:06:09;;;;;;;;;;;;;;;26.77;46.97;98874.25;2092019;28;19924;-49
2022/06/13 01:07:11;;;;;;;;;;;;;;;26.78;46.93;98873.19;2090844;28;21204;-49
2022/06/13 01:08:12;;;;;;;;;;;;;;;26.78;46.92;98871.28;2092243;28;19932;-48
2022/06/13 01:09:15;;;;;;;;;;;;;;;26.73;46.90;98872.03;2091405;28;20358;-51
2022/06/13 01:11:53;;;;;;;;;;;;;;;26.71;46.69;98867.91;2092902;28;19955;-48
2022/06/13 01:12:55;;;;;;;;;;;;;;;26.70;47.06;98869.81;2092268;28;19933;-49
2022/06/13 01:14:14;;;;;;;;;;;;;;;26.70;46.87;98877.16;2089887;28;19932;-48
2022/06/13 01:15:22;;;;;;;;;;;;;;;26.71;47.00;98873.34;2089286;28;19939;-51
2022/06/13 01:16:31;;;;;;;;;;;;;;;26.72;47.36;98875.03;2091774;28;20503;-48
2022/06/13 01:17:38;;;;;;;;;;;;;;;26.71;47.15;98874.19;2089081;28;20413;-49
2022/06/13 01:18:47;;;;;;;;;;;;;;;26.69;47.28;98876.34;2093198;28;19930;-48
2022/06/13 01:20:02;;;;;;;;;;;;;;;26.68;46.86;98874.69;2092152;28;19933;-50
2022/06/13 01:21:11;;;;;;;;;;;;;;;26.69;47.31;98875.50;2092053;28;19924;-48
2022/06/13 01:22:22;;;;;;;;;;;;;;;26.70;47.20;98874.44;2089565;28;19959;-53
2022/06/13 01:23:42;;;;;;;;;;;;;;;26.72;46.73;98881.28;2090320;28;19925;-49
2022/06/13 01:24:54;;;;;;;;;;;;;;;26.70;47.05;98877.16;2091117;28;19935;-50
2022/06/13 01:26:15;;;;;;;;;;;;;;;26.72;47.06;98880.47;2089507;28;19932;-48
2022/06/13 01:27:33;;;;;;;;;;;;;;;26.70;47.59;98871.72;2089620;28;19935;-48
2022/06/13 01:28:49;;;;;;;;;;;;;;;26.69;47.43;98870.06;2090243;28;19925;-48
2022/06/13 01:29:58;;;;;;;;;;;;;;;26.69;47.08;98873.63;2091539;28;19932;-50
2022/06/13 01:31:08;;;;;;;;;;;;;;;26.69;47.13;98875.50;2090535;28;19930;-49
2022/06/13 01:32:17;;;;;;;;;;;;;;;26.69;47.35;98872.78;2093403;28;19928;-49
2022/06/13 01:33:20;;;;;;;;;;;;;;;26.70;47.32;98882.59;2090050;28;19925;-48
2022/06/13 01:34:27;;;;;;;;;;;;;;;26.68;47.62;98879.31;2091040;28;19924;-48
2022/06/13 01:35:39;;;;;;;;;;;;;;;26.66;47.28;98876.84;2091665;28;20441;-51
2022/06/13 01:36:46;;;;;;;;;;;;;;;26.65;47.64;98877.09;2090228;28;19959;-49
2022/06/13 01:37:54;;;;;;;;;;;;;;;26.66;47.44;98876.84;2093333;28;20289;-49
2022/06/13 01:39:01;;;;;;;;;;;;;;;26.68;47.13;98877.41;2089928;28;19933;-49
2022/06/13 01:40:09;;;;;;;;;;;;;;;26.71;47.16;98874.19;2091646;28;20378;-49
2022/06/13 01:41:13;;;;;;;;;;;;;;;26.71;47.26;98876.09;2090921;28;19990;-51
2022/06/13 01:42:22;;;;;;;;;;;;;;;26.70;47.11;98875.25;2090467;28;19924;-47
2022/06/13 01:43:31;;;;;;;;;;;;;;;26.71;47.33;98867.91;2092124;28;20501;-49
2022/06/13 01:44:38;;;;;;;;;;;;;;;26.70;46.68;98869.81;2087792;28;19924;-49
2022/06/13 01:45:43;;;;;;;;;;;;;;;26.71;47.15;98866.00;2090148;28;19925;-49
2022/06/13 01:46:51;;;;;;;;;;;;;;;26.71;47.18;98857.84;2089552;28;19943;-49
2022/06/13 01:47:56;;;;;;;;;;;;;;;26.73;46.60;98865.78;2090622;28;20359;-48
2022/06/13 01:49:00;;;;;;;;;;;;;;;26.68;46.87;98860.25;2089770;28;19928;-50
2022/06/13 01:50:08;;;;;;;;;;;;;;;26.70;46.76;98860.84;2090520;28;19928;-47
2022/06/13 01:51:15;;;;;;;;;;;;;;;26.68;47.06;98857.53;2091051;28;19929;-48
2022/06/13 01:52:19;;;;;;;;;;;;;;;26.66;47.32;98851.53;2090200;28;19935;-48
2022/06/13 01:53:23;;;;;;;;;;;;;;;26.67;46.91;98855.91;2091361;28;20046;-49
2022/06/13 01:54:28;;;;;;;;;;;;;;;26.65;47.13;98850.69;2090812;28;20270;-48
2022/06/13 01:55:37;;;;;;;;;;;;;;;26.67;47.45;98851.28;2091919;28;19924;-48
2022/06/13 01:56:43;;;;;;;;;;;;;;;26.67;47.21;98851.28;2093707;28;19924;-51
2022/06/13 01:57:48;;;;;;;;;;;;;;;26.68;47.32;98841.22;2090378;28;19936;-48
2022/06/13 01:58:51;;;;;;;;;;;;;;;26.68;47.24;98846.66;2084492;28;19932;-48
2022/06/13 01:59:56;;;;;;;;;;;;;;;26.69;47.10;98840.13;2088522;28;19932;-48
2022/06/13 02:01:00;;;;;;;;;;;;;;;26.70;46.77;98836.34;2086276;28;20397;-50
2022/06/13 02:02:04;;;;;;;;;;;;;;;26.71;46.71;98840.72;2088829;28;19928;-50
2022/06/13 02:03:13;;;;;;;;;;;;;;;26.70;47.16;98841.78;2086474;28;19924;-49
2022/06/13 02:04:16;;;;;;;;;;;;;;;26.71;46.78;98835.28;2086047;28;19928;-49
2022/06/13 02:05:21;;;;;;;;;;;;;;;26.72;46.69;98836.94;2087458;28;19929;-49
2022/06/13 02:06:25;;;;;;;;;;;;;;;26.71;47.08;98835.28;2086155;28;20046;-49
2022/06/13 02:07:29;;;;;;;;;;;;;;;26.72;46.75;98839.66;2085436;28;20370;-47
2022/06/13 02:08:34;;;;;;;;;;;;;;;26.72;46.93;98826.88;2088487;28;19924;-48
2022/06/13 02:09:39;;;;;;;;;;;;;;;26.72;46.70;98836.94;2088965;28;19932;-49
2022/06/13 02:10:43;;;;;;;;;;;;;;;26.72;46.79;98831.50;2088037;28;20431;-48
2022/06/13 02:11:47;;;;;;;;;;;;;;;26.71;46.56;98835.28;2088651;28;19982;-49
2022/06/13 02:12:50;;;;;;;;;;;;;;;26.67;47.08;98834.13;2083930;28;20290;-50
2022/06/13 02:13:56;;;;;;;;;;;;;;;26.68;46.83;98841.22;2084417;28;19933;-51
2022/06/13 02:14:59;;;;;;;;;;;;;;;26.69;46.98;98840.13;2087480;28;20067;-48
2022/06/13 02:16:06;;;;;;;;;;;;;;;26.68;47.06;98841.22;2085181;28;19937;-48
2022/06/13 02:17:10;;;;;;;;;;;;;;;26.68;46.74;98849.38;2086384;28;19944;-48
2022/06/13 02:18:15;;;;;;;;;;;;;;;26.68;46.93;98838.50;2089079;28;19935;-48
2022/06/13 02:19:19;;;;;;;;;;;;;;;26.68;46.67;98841.22;2087760;28;19928;-50
2022/06/13 02:20:23;;;;;;;;;;;;;;;26.67;47.13;98845.84;2089246;28;20006;-48
2022/06/13 02:21:30;;;;;;;;;;;;;;;26.67;47.21;98842.31;2088478;28;19933;-49
2022/06/13 02:22:36;;;;;;;;;;;;;;;26.65;46.87;98845.25;2085653;28;19935;-49
2022/06/13 02:23:38;;;;;;;;;;;;;;;26.66;47.15;98849.66;2086295;28;19925;-49
2022/06/13 02:24:43;;;;;;;;;;;;;;;26.63;47.39;98847.41;2086869;28;19932;-49
2022/06/13 02:25:48;;;;;;;;;;;;;;;26.65;47.09;98847.97;2085321;28;20945;-49
2022/06/13 02:26:52;;;;;;;;;;;;;;;26.66;47.22;98846.06;2085607;28;19924;-48
2022/06/13 02:27:56;;;;;;;;;;;;;;;26.66;47.04;98852.38;2087823;28;19987;-48
2022/06/13 02:29:00;;;;;;;;;;;;;;;26.65;47.32;98847.16;2085088;28;19925;-47
2022/06/13 02:30:03;;;;;;;;;;;;;;;26.65;46.66;98844.44;2085051;28;19925;-49
2022/06/13 02:31:09;;;;;;;;;;;;;;;26.63;47.34;98843.88;2086285;28;20002;-49
2022/06/13 02:32:13;;;;;;;;;;;;;;;26.64;47.01;98840.09;2085102;28;20907;-48
2022/06/13 02:33:18;;;;;;;;;;;;;;;26.64;46.89;98840.09;2085580;28;19928;-51
2022/06/13 02:34:21;;;;;;;;;;;;;;;26.63;46.98;98843.88;2089488;28;19929;-48
2022/06/13 02:35:23;;;;;;;;;;;;;;;26.65;47.23;98847.16;2087921;28;19936;-49
2022/06/13 02:36:28;;;;;;;;;;;;;;;26.63;47.10;98839.25;2087832;28;19933;-50
2022/06/13 02:37:31;;;;;;;;;;;;;;;26.62;47.33;98853.13;2086482;28;19931;-49
2022/06/13 02:38:37;;;;;;;;;;;;;;;26.62;47.27;98850.41;2087019;28;20375;-46
2022/06/13 02:39:41;;;;;;;;;;;;;;;26.61;47.13;98844.13;2086183;28;19940;-47
2022/06/13 02:40:45;;;;;;;;;;;;;;;26.62;47.05;98844.94;2087398;28;20023;-50
2022/06/13 02:41:51;;;;;;;;;;;;;;;26.62;47.01;98847.66;2087085;28;20586;-48
2022/06/13 02:42:53;;;;;;;;;;;;;;;26.60;47.38;98845.19;2087569;28;20334;-50
2022/06/13 02:43:58;;;;;;;;;;;;;;;26.59;47.35;98838.13;2086635;28;19925;-47
2022/06/13 02:45:02;;;;;;;;;;;;;;;26.61;47.36;98851.47;2084790;28;19932;-47
2022/06/13 02:46:07;;;;;;;;;;;;;;;26.60;47.24;98833.50;2087940;28;19924;-48
2022/06/13 02:47:10;;;;;;;;;;;;;;;26.59;47.09;98837.28;2086586;28;20280;-49
2022/06/13 02:48:15;;;;;;;;;;;;;;;26.59;47.29;98840.00;2085425;28;19952;-50
2022/06/13 02:49:18;;;;;;;;;;;;;;;26.57;47.23;98834.81;2084828;28;20421;-49
2022/06/13 02:50:24;;;;;;;;;;;;;;;26.58;47.28;98838.34;2087063;28;20030;-48
2022/06/13 02:51:28;;;;;;;;;;;;;;;26.58;47.52;98843.78;2085404;28;19939;-48
2022/06/13 02:52:33;;;;;;;;;;;;;;;26.57;47.54;98840.25;2087744;28;19929;-51
2022/06/13 02:53:39;;;;;;;;;;;;;;;26.59;47.28;98845.47;2088568;28;20433;-50
2022/06/13 02:54:46;;;;;;;;;;;;;;;26.57;47.38;98836.72;2088116;28;19924;-47
2022/06/13 02:55:52;;;;;;;;;;;;;;;26.56;47.44;98838.63;2087274;28;19936;-47
2022/06/13 02:57:25;;;;;;;;;;;;;;;26.57;47.57;98842.16;2086741;28;20863;-49
2022/06/13 02:58:35;;;;;;;;;;;;;;;26.56;47.40;98844.06;2085416;28;19982;-49
2022/06/13 02:59:41;;;;;;;;;;;;;;;26.56;47.06;98835.09;2085375;28;20471;-48
2022/06/13 03:00:49;;;;;;;;;;;;;;;26.55;47.24;98842.41;2089697;28;20313;-50
2022/06/13 03:01:52;;;;;;;;;;;;;;;26.55;47.32;98838.84;2089878;28;21383;-49
2022/06/13 03:03:10;;;;;;;;;;;;;;;26.55;47.53;98831.53;2090808;28;19967;-48
2022/06/13 03:04:15;;;;;;;;;;;;;;;26.55;47.33;98836.13;2090645;28;19936;-49
2022/06/13 03:05:26;;;;;;;;;;;;;;;26.55;47.29;98834.25;2091002;28;19959;-48
2022/06/13 03:06:31;;;;;;;;;;;;;;;26.56;47.73;98837.81;2087524;28;19928;-50
2022/06/13 03:07:34;;;;;;;;;;;;;;;26.54;47.43;98832.59;2090927;28;20006;-52
2022/06/13 03:08:44;;;;;;;;;;;;;;;26.54;47.75;98837.22;2089658;28;20456;-47
2022/06/13 03:09:48;;;;;;;;;;;;;;;26.54;47.86;98829.88;2089865;28;19932;-47
2022/06/13 03:10:53;;;;;;;;;;;;;;;26.56;47.47;98829.63;2090687;28;19932;-51
2022/06/13 03:12:00;;;;;;;;;;;;;;;26.55;47.57;98825.25;2089733;28;19925;-51
2022/06/13 03:13:06;;;;;;;;;;;;;;;26.55;47.80;98822.53;2090635;28;19933;-47
2022/06/13 03:14:12;;;;;;;;;;;;;;;26.54;47.61;98829.06;2090711;28;20058;-49
2022/06/13 03:15:19;;;;;;;;;;;;;;;26.56;47.56;98829.63;2091347;28;19981;-48
2022/06/13 03:16:26;;;;;;;;;;;;;;;26.55;47.84;98826.09;2092110;28;19931;-50
2022/06/13 03:17:33;;;;;;;;;;;;;;;26.55;47.62;98822.53;2089578;28;20003;-50
2022/06/13 03:18:37;;;;;;;;;;;;;;;26.55;47.45;98834.25;2089030;28;20515;-48
2022/06/13 03:19:42;;;;;;;;;;;;;;;26.55;47.87;98819.81;2090297;28;20558;-48
2022/06/13 03:20:47;;;;;;;;;;;;;;;26.56;47.73;98821.47;2089396;28;19940;-48
2022/06/13 03:21:51;;;;;;;;;;;;;;;26.54;47.83;98824.44;2086740;28;19928;-51
2022/06/13 03:22:56;;;;;;;;;;;;;;;26.54;47.60;98823.63;2089566;28;19928;-47
2022/06/13 03:24:00;;;;;;;;;;;;;;;26.55;47.31;98822.53;2089986;28;19935;-47
2022/06/13 03:25:10;;;;;;;;;;;;;;;26.54;47.86;98823.63;2086689;28;19929;-53
2022/06/13 03:26:13;;;;;;;;;;;;;;;26.54;47.39;98815.47;2088491;28;19972;-48
2022/06/13 03:27:18;;;;;;;;;;;;;;;26.53;47.57;98817.38;2086146;28;19944;-48
2022/06/13 03:28:20;;;;;;;;;;;;;;;26.54;47.87;98819.00;2087211;28;20895;-47
2022/06/13 03:29:24;;;;;;;;;;;;;;;26.54;47.68;98812.75;2085902;28;19936;-48
2022/06/13 03:30:27;;;;;;;;;;;;;;;26.52;47.70;98813.81;2088572;28;19933;-49
2022/06/13 03:31:32;;;;;;;;;;;;;;;26.52;47.70;98812.97;2089601;28;19956;-51
2022/06/13 03:32:36;;;;;;;;;;;;;;;26.52;47.90;98813.81;2087541;28;19933;-46
2022/06/13 03:33:43;;;;;;;;;;;;;;;26.52;47.38;98816.53;2087606;28;20433;-48
2022/06/13 03:34:47;;;;;;;;;;;;;;;26.51;47.61;98814.88;2088501;28;19929;-48
2022/06/13 03:35:50;;;;;;;;;;;;;;;26.51;47.96;98814.88;2089924;28;19932;-49
2022/06/13 03:36:55;;;;;;;;;;;;;;;26.51;47.72;98819.50;2087386;28;19932;-50
2022/06/13 03:37:56;;;;;;;;;;;;;;;26.50;47.94;98818.69;2087922;28;19998;-50
2022/06/13 03:39:00;;;;;;;;;;;;;;;26.51;47.33;98812.16;2088100;28;19978;-49
2022/06/13 03:40:04;;;;;;;;;;;;;;;26.51;47.70;98814.88;2087386;28;19928;-48
2022/06/13 03:41:08;;;;;;;;;;;;;;;26.52;47.54;98811.09;2090102;28;19929;-48
2022/06/13 03:42:10;;;;;;;;;;;;;;;26.52;47.72;98811.09;2090427;28;19928;-50
2022/06/13 03:43:17;;;;;;;;;;;;;;;26.52;47.25;98813.81;2089810;28;19928;-49
2022/06/13 03:44:19;;;;;;;;;;;;;;;26.53;47.86;98803.75;2088082;28;19936;-54
2022/06/13 03:45:23;;;;;;;;;;;;;;;26.52;47.56;98805.66;2086070;28;20457;-52
2022/06/13 03:46:26;;;;;;;;;;;;;;;26.54;47.38;98810.03;2091527;28;19936;-50
2022/06/13 03:47:31;;;;;;;;;;;;;;;26.52;47.84;98811.09;2090407;28;19936;-48
2022/06/13 03:48:34;;;;;;;;;;;;;;;26.50;47.59;98802.38;2091760;28;20000;-48
2022/06/13 03:49:38;;;;;;;;;;;;;;;26.50;48.11;98807.81;2092486;28;19970;-48
2022/06/13 03:50:41;;;;;;;;;;;;;;;26.50;47.78;98815.97;2092130;28;19929;-51
2022/06/13 03:51:44;;;;;;;;;;;;;;;26.51;47.95;98809.44;2093930;28;20015;-49
2022/06/13 03:52:48;;;;;;;;;;;;;;;26.50;47.82;98813.25;2092116;28;19924;-49
2022/06/13 03:53:52;;;;;;;;;;;;;;;26.51;47.98;98812.16;2089547;28;20016;-50
2022/06/13 03:54:54;;;;;;;;;;;;;;;26.52;47.86;98815.69;2094592;28;19925;-48
2022/06/13 03:55:58;;;;;;;;;;;;;;;26.50;47.70;98802.38;2091191;28;19928;-48
2022/06/13 03:57:02;;;;;;;;;;;;;;;26.53;47.64;98811.91;2088491;28;19940;-50
2022/06/13 03:58:04;;;;;;;;;;;;;;;26.51;47.81;98809.44;2085191;28;19959;-50
2022/06/13 03:59:09;;;;;;;;;;;;;;;26.52;47.68;98804.81;2088650;28;19939;-49
2022/06/13 04:00:14;;;;;;;;;;;;;;;26.51;47.72;98801.28;2093501;28;19940;-49
2022/06/13 04:01:17;;;;;;;;;;;;;;;26.51;47.85;98800.47;2090550;28;19939;-48
2022/06/13 04:02:21;;;;;;;;;;;;;;;26.51;47.36;98798.56;2092504;28;20015;-53
2022/06/13 04:03:23;;;;;;;;;;;;;;;26.51;47.79;98804.00;2090396;28;19933;-50
2022/06/13 04:04:27;;;;;;;;;;;;;;;26.50;47.52;98791.47;2089364;28;20757;-47
2022/06/13 04:05:32;;;;;;;;;;;;;;;26.51;47.93;98792.31;2092668;28;20321;-47
2022/06/13 04:06:36;;;;;;;;;;;;;;;26.51;47.74;98795.03;2090089;28;19924;-49
2022/06/13 04:07:38;;;;;;;;;;;;;;;26.50;48.09;98788.75;2091119;28;20378;-49
2022/06/13 04:08:38;;;;;;;;;;;;;;;26.51;48.13;98786.88;2093036;28;19925;-48
2022/06/13 04:09:42;;;;;;;;;;;;;;;26.51;48.03;98787.69;2092984;28;19928;-49
2022/06/13 04:10:49;;;;;;;;;;;;;;;26.51;47.88;98786.88;2092450;28;20016;-48
2022/06/13 04:11:54;;;;;;;;;;;;;;;26.50;47.70;98786.03;2089618;28;19932;-49
2022/06/13 04:13:01;;;;;;;;;;;;;;;26.51;47.86;98789.59;2089621;28;20021;-47
2022/06/13 04:14:07;;;;;;;;;;;;;;;26.49;48.02;98789.81;2091186;28;19948;-51
2022/06/13 04:15:20;;;;;;;;;;;;;;;26.49;47.93;98787.09;2091455;28;19939;-48
2022/06/13 04:16:26;;;;;;;;;;;;;;;26.48;47.82;98782.72;2092366;28;19931;-48
2022/06/13 04:17:30;;;;;;;;;;;;;;;26.49;47.83;98781.66;2091343;28;20391;-49
2022/06/13 04:18:49;;;;;;;;;;;;;;;26.48;48.30;98785.44;2092187;28;19928;-51
2022/06/13 04:19:53;;;;;;;;;;;;;;;26.49;47.70;98780.81;2090237;28;19984;-52
2022/06/13 04:20:59;;;;;;;;;;;;;;;26.49;48.01;98780.81;2090499;28;19929;-49
2022/06/13 04:22:05;;;;;;;;;;;;;;;26.48;47.88;98788.16;2090610;28;19924;-48
2022/06/13 04:23:11;;;;;;;;;;;;;;;26.50;48.07;98790.63;2088985;28;20435;-47
2022/06/13 04:24:17;;;;;;;;;;;;;;;26.50;48.18;98786.03;2089156;28;19936;-49
2022/06/13 04:25:24;;;;;;;;;;;;;;;26.49;48.23;98783.53;2090396;28;19987;-49
2022/06/13 04:26:29;;;;;;;;;;;;;;;26.49;48.20;98788.97;2091402;28;19925;-47
2022/06/13 04:27:35;;;;;;;;;;;;;;;26.50;48.07;98783.31;2089438;28;20024;-52
2022/06/13 04:28:40;;;;;;;;;;;;;;;26.49;47.98;98784.38;2089331;28;19935;-49
2022/06/13 04:29:46;;;;;;;;;;;;;;;26.49;48.34;98787.09;2088513;28;19929;-50
2022/06/13 04:30:49;;;;;;;;;;;;;;;26.50;47.77;98786.03;2088754;28;20784;-49
2022/06/13 04:31:51;;;;;;;;;;;;;;;26.50;47.92;98779.75;2090370;28;19939;-53
2022/06/13 04:32:56;;;;;;;;;;;;;;;26.51;47.95;98786.88;2090951;28;19951;-51
2022/06/13 04:34:00;;;;;;;;;;;;;;;26.52;48.25;98783.91;2089154;28;19929;-48
2022/06/13 04:35:01;;;;;;;;;;;;;;;26.51;48.21;98784.97;2092511;28;19929;-48
2022/06/13 04:36:05;;;;;;;;;;;;;;;26.50;47.99;98783.31;2089260;28;20386;-47
2022/06/13 04:37:07;;;;;;;;;;;;;;;26.51;48.08;98792.31;2089213;28;19956;-48
2022/06/13 04:38:11;;;;;;;;;;;;;;;26.49;47.98;98783.53;2089890;28;19932;-50
2022/06/13 04:39:14;;;;;;;;;;;;;;;26.47;48.09;98781.09;2090322;28;20518;-48
2022/06/13 04:40:20;;;;;;;;;;;;;;;26.48;47.84;98787.34;2091770;28;19929;-49
2022/06/13 04:41:22;;;;;;;;;;;;;;;26.49;47.96;98786.25;2091821;28;20338;-50
2022/06/13 04:42:24;;;;;;;;;;;;;;;26.49;48.25;98792.53;2089715;28;19929;-47
2022/06/13 04:43:28;;;;;;;;;;;;;;;26.50;47.81;98787.91;2092168;28;19932;-47
2022/06/13 04:44:30;;;;;;;;;;;;;;;26.50;47.66;98786.03;2088354;28;19928;-49
2022/06/13 04:45:33;;;;;;;;;;;;;;;26.48;48.19;98782.72;2089829;28;19924;-53
2022/06/13 04:46:36;;;;;;;;;;;;;;;26.49;48.12;98784.38;2090948;28;20043;-52
2022/06/13 04:47:37;;;;;;;;;;;;;;;26.51;47.95;98784.13;2088558;28;19928;-48
2022/06/13 04:48:39;;;;;;;;;;;;;;;26.48;48.05;98785.44;2088242;28;20004;-49
2022/06/13 04:49:43;;;;;;;;;;;;;;;26.49;48.25;98784.38;2088507;28;19940;-49
2022/06/13 04:50:47;;;;;;;;;;;;;;;26.47;48.43;98785.69;2089215;28;19939;-48
2022/06/13 04:51:48;;;;;;;;;;;;;;;26.47;47.88;98778.34;2088854;28;19939;-49
2022/06/13 04:52:52;;;;;;;;;;;;;;;26.48;47.89;98782.72;2088468;28;20322;-50
2022/06/13 04:53:56;;;;;;;;;;;;;;;26.48;48.40;98787.34;2089389;28;19932;-50
2022/06/13 04:54:59;;;;;;;;;;;;;;;26.48;47.95;98782.72;2090373;28;19933;-49
2022/06/13 04:56:00;;;;;;;;;;;;;;;26.47;48.07;98785.69;2090543;28;20282;-54
2022/06/13 04:57:02;;;;;;;;;;;;;;;26.48;48.01;98784.63;2087535;28;19929;-51
2022/06/13 04:58:03;;;;;;;;;;;;;;;26.48;48.21;98782.72;2089230;28;20065;-51
2022/06/13 04:59:04;;;;;;;;;;;;;;;26.47;48.35;98781.09;2089794;28;19929;-48
2022/06/13 05:00:06;;;;;;;;;;;;;;;26.48;48.20;98788.16;2088815;28;20023;-53
2022/06/13 05:01:11;;;;;;;;;;;;;;;26.49;47.94;98789.81;2090202;28;19933;-47
2022/06/13 05:02:15;;;;;;;;;;;;;;;26.50;48.17;98794.19;2088479;28;19932;-48
2022/06/13 05:03:19;;;;;;;;;;;;;;;26.48;48.57;98792.78;2091585;28;19935;-50
2022/06/13 05:04:22;;;;;;;;;;;;;;;26.49;48.12;98794.41;2090020;28;19925;-47
2022/06/13 05:05:36;;;;;;;;;;;;;;;26.47;48.25;98794.69;2092704;28;19928;-49
2022/06/13 05:06:38;;;;;;;;;;;;;;;26.47;48.00;98802.03;2091398;28;19932;-49
2022/06/13 05:07:39;;;;;;;;;;;;;;;26.47;48.10;98800.13;2094823;28;19924;-47
2022/06/13 05:08:43;;;;;;;;;;;;;;;26.47;48.03;98802.84;2091986;28;20821;-48
2022/06/13 05:09:47;;;;;;;;;;;;;;;26.46;48.07;98798.44;2089444;28;19932;-49
2022/06/13 05:10:50;;;;;;;;;;;;;;;26.48;47.57;98798.22;2093217;28;19986;-48
2022/06/13 05:11:53;;;;;;;;;;;;;;;26.49;48.07;98795.25;2090845;28;19931;-52
2022/06/13 05:12:55;;;;;;;;;;;;;;;26.50;47.80;98798.78;2092152;28;19924;-47
2022/06/13 05:14:01;;;;;;;;;;;;;;;26.50;47.63;98799.66;2092610;28;19939;-49
2022/06/13 05:15:04;;;;;;;;;;;;;;;26.52;47.75;98805.66;2091537;28;19932;-49
2022/06/13 05:16:12;;;;;;;;;;;;;;;26.51;47.91;98795.03;2093728;28;19939;-47
2022/06/13 05:17:28;;;;;;;;;;;;;;;26.50;47.57;98813.25;2089746;28;19929;-50
2022/06/13 05:18:37;;;;;;;;;;;;;;;26.49;47.93;98806.13;2090974;28;19936;-48
2022/06/13 05:19:44;;;;;;;;;;;;;;;26.50;47.87;98802.38;2091633;28;19925;-50
2022/06/13 05:20:50;;;;;;;;;;;;;;;26.48;47.87;98806.38;2092714;28;20038;-50
2022/06/13 05:21:55;;;;;;;;;;;;;;;26.47;47.60;98802.03;2089282;28;19929;-48
2022/06/13 05:23:08;;;;;;;;;;;;;;;26.46;47.89;98794.91;2090426;28;19924;-48
2022/06/13 05:24:17;;;;;;;;;;;;;;;26.46;47.85;98805.78;2089893;28;19928;-48
2022/06/13 05:25:37;;;;;;;;;;;;;;;26.47;47.98;98797.41;2091470;28;19936;-49
2022/06/13 05:26:37;;;;;;;;;;;;;;;26.47;47.47;98805.56;2089669;28;19932;-49
2022/06/13 05:27:39;;;;;;;;;;;;;;;26.46;47.55;98803.88;2089479;28;22193;-50
2022/06/13 05:28:40;;;;;;;;;;;;;;;26.48;47.65;98800.94;2091298;28;19932;-50
2022/06/13 05:29:41;;;;;;;;;;;;;;;26.47;47.56;98797.41;2090708;28;19939;-49
2022/06/13 05:30:43;;;;;;;;;;;;;;;26.48;47.58;98809.91;2090829;28;20032;-48
2022/06/13 05:31:44;;;;;;;;;;;;;;;26.46;47.65;98805.78;2089160;28;19925;-48
2022/06/13 05:32:45;;;;;;;;;;;;;;;26.45;47.36;98802.25;2090745;28;19924;-49
2022/06/13 05:33:48;;;;;;;;;;;;;;;26.42;47.53;98794.59;2088721;28;19933;-50
2022/06/13 05:34:49;;;;;;;;;;;;;;;26.42;47.85;98799.22;2089409;28;19963;-49
2022/06/13 05:35:53;;;;;;;;;;;;;;;26.42;47.54;98800.03;2089506;28;20275;-48
2022/06/13 05:36:54;;;;;;;;;;;;;;;26.41;47.46;98800.28;2089261;28;19932;-51
2022/06/13 05:37:57;;;;;;;;;;;;;;;26.40;47.91;98802.19;2089404;28;19943;-48
2022/06/13 05:39:00;;;;;;;;;;;;;;;26.39;47.56;98810.59;2089742;28;19939;-48